sensor_id;sensor_type;location;lat;lon;timestamp;pressure;altitude;pressure_sealevel;temperature;humidity
47054;BME280;32811;52.382;5.270;2023-11-19T00:01:43;100801.34;;;11.65;100.00
47054;BME280;32811;52.382;5.270;2023-11-19T00:04:10;100797.06;;;11.59;100.00
47054;BME280;32811;52.382;5.270;2023-11-19T00:06:36;100795.31;;;11.69;100.00
47054;BME280;32811;52.382;5.270;2023-11-19T00:09:03;100790.16;;;11.68;100.00
47054;BME280;32811;52.382;5.270;2023-11-19T00:11:30;100793.63;;;11.63;100.00
47054;BME280;32811;52.382;5.270;2023-11-19T00:13:57;100803.94;;;11.67;100.00
47054;BME280;32811;52.382;5.270;2023-11-19T00:16:24;100785.84;;;11.68;100.00
47054;BME280;32811;52.382;5.270;2023-11-19T00:18:51;100791.88;;;11.67;100.00
47054;BME280;32811;52.382;5.270;2023-11-19T00:21:17;100790.16;;;11.64;100.00
47054;BME280;32811;52.382;5.270;2023-11-19T00:23:46;100796.19;;;11.59;100.00
47054;BME280;32811;52.382;5.270;2023-11-19T00:26:13;100757.41;;;11.45;100.00
47054;BME280;32811;52.382;5.270;2023-11-19T00:28:41;100772.94;;;11.59;100.00
47054;BME280;32811;52.382;5.270;2023-11-19T00:31:09;100760.84;;;11.52;100.00
47054;BME280;32811;52.382;5.270;2023-11-19T00:33:36;100755.72;;;11.41;100.00
47054;BME280;32811;52.382;5.270;2023-11-19T00:36:15;100751.41;;;11.37;100.00
47054;BME280;32811;52.382;5.270;2023-11-19T00:38:42;100752.28;;;11.34;100.00
47054;BME280;32811;52.382;5.270;2023-11-19T00:41:09;100747.97;;;11.36;100.00
47054;BME280;32811;52.382;5.270;2023-11-19T00:43:35;100757.44;;;11.33;100.00
47054;BME280;32811;52.382;5.270;2023-11-19T00:46:02;100769.47;;;11.29;100.00
47054;BME280;32811;52.382;5.270;2023-11-19T00:48:29;100773.81;;;11.26;100.00
47054;BME280;32811;52.382;5.270;2023-11-19T00:50:56;100773.78;;;11.32;100.00
47054;BME280;32811;52.382;5.270;2023-11-19T00:53:22;100750.56;;;11.26;100.00
47054;BME280;32811;52.382;5.270;2023-11-19T00:55:49;100760.03;;;11.19;100.00
47054;BME280;32811;52.382;5.270;2023-11-19T00:58:16;100768.63;;;11.21;100.00
47054;BME280;32811;52.382;5.270;2023-11-19T01:00:44;100770.34;;;11.22;100.00
47054;BME280;32811;52.382;5.270;2023-11-19T01:03:11;100775.50;;;11.25;100.00
47054;BME280;32811;52.382;5.270;2023-11-19T01:05:38;100785.00;;;11.26;100.00
47054;BME280;32811;52.382;5.270;2023-11-19T01:08:05;100775.53;;;11.28;100.00
47054;BME280;32811;52.382;5.270;2023-11-19T01:10:32;100771.19;;;11.27;100.00
47054;BME280;32811;52.382;5.270;2023-11-19T01:13:00;100762.59;;;11.25;100.00
47054;BME280;32811;52.382;5.270;2023-11-19T01:15:27;100745.38;;;11.26;100.00
47054;BME280;32811;52.382;5.270;2023-11-19T01:17:53;100745.38;;;11.21;100.00
47054;BME280;32811;52.382;5.270;2023-11-19T01:20:20;100738.50;;;11.21;100.00
47054;BME280;32811;52.382;5.270;2023-11-19T01:22:48;100739.34;;;11.19;100.00
47054;BME280;32811;52.382;5.270;2023-11-19T01:25:15;100744.50;;;11.20;100.00
47054;BME280;32811;52.382;5.270;2023-11-19T01:27:42;100735.91;;;11.20;100.00
47054;BME280;32811;52.382;5.270;2023-11-19T01:30:09;100731.59;;;11.28;100.00
47054;BME280;32811;52.382;5.270;2023-11-19T01:32:39;100734.16;;;11.25;100.00
47054;BME280;32811;52.382;5.270;2023-11-19T01:35:09;100723.84;;;11.16;100.00
47054;BME280;32811;52.382;5.270;2023-11-19T01:37:36;100727.28;;;11.19;100.00
47054;BME280;32811;52.382;5.270;2023-11-19T01:40:03;100722.13;;;11.16;100.00
47054;BME280;32811;52.382;5.270;2023-11-19T01:42:38;100716.94;;;11.09;100.00
47054;BME280;32811;52.382;5.270;2023-11-19T01:45:08;100702.31;;;11.01;100.00
47054;BME280;32811;52.382;5.270;2023-11-19T01:47:36;100718.69;;;11.13;100.00
47054;BME280;32811;52.382;5.270;2023-11-19T01:50:06;100722.13;;;11.13;100.00
47054;BME280;32811;52.382;5.270;2023-11-19T01:52:37;100739.34;;;11.10;100.00
47054;BME280;32811;52.382;5.270;2023-11-19T01:55:06;100745.38;;;11.09;100.00
47054;BME280;32811;52.382;5.270;2023-11-19T01:57:35;100755.69;;;11.13;100.00
47054;BME280;32811;52.382;5.270;2023-11-19T02:00:07;100754.84;;;11.08;100.00
47054;BME280;32811;52.382;5.270;2023-11-19T02:02:38;100760.84;;;11.12;100.00
47054;BME280;32811;52.382;5.270;2023-11-19T02:05:06;100754.00;;;11.17;100.00
47054;BME280;32811;52.382;5.270;2023-11-19T02:07:33;100723.84;;;11.13;100.00
47054;BME280;32811;52.382;5.270;2023-11-19T02:10:00;100718.69;;;11.14;100.00
47054;BME280;32811;52.382;5.270;2023-11-19T02:12:29;100727.28;;;11.09;100.00
47054;BME280;32811;52.382;5.270;2023-11-19T02:14:55;100727.28;;;11.01;100.00
47054;BME280;32811;52.382;5.270;2023-11-19T02:17:26;100738.47;;;11.05;100.00
47054;BME280;32811;52.382;5.270;2023-11-19T02:19:54;100729.00;;;10.97;100.00
47054;BME280;32811;52.382;5.270;2023-11-19T02:22:21;100737.56;;;10.87;100.00
47054;BME280;32811;52.382;5.270;2023-11-19T02:24:49;100724.72;;;10.92;100.00
47054;BME280;32811;52.382;5.270;2023-11-19T02:30:13;100745.34;;;10.86;100.00
47054;BME280;32811;52.382;5.270;2023-11-19T02:32:43;100745.31;;;10.78;100.00
47054;BME280;32811;52.382;5.270;2023-11-19T02:35:12;100750.50;;;10.79;100.00
47054;BME280;32811;52.382;5.270;2023-11-19T02:37:42;100748.75;;;10.75;100.00
47054;BME280;32811;52.382;5.270;2023-11-19T02:40:12;100745.34;;;10.76;100.00
47054;BME280;32811;52.382;5.270;2023-11-19T02:42:40;100741.00;;;10.80;100.00
47054;BME280;32811;52.382;5.270;2023-11-19T02:45:07;100738.44;;;10.82;100.00
47054;BME280;32811;52.382;5.270;2023-11-19T02:47:34;100723.81;;;10.74;100.00
47054;BME280;32811;52.382;5.270;2023-11-19T02:50:03;100719.50;;;10.78;100.00
47054;BME280;32811;52.382;5.270;2023-11-19T02:52:30;100718.66;;;10.70;100.00
47054;BME280;32811;52.382;5.270;2023-11-19T02:55:01;100721.22;;;10.74;100.00
47054;BME280;32811;52.382;5.270;2023-11-19T02:57:31;100722.06;;;10.69;100.00
47054;BME280;32811;52.382;5.270;2023-11-19T02:59:58;100726.38;;;10.67;100.00
47054;BME280;32811;52.382;5.270;2023-11-19T03:02:26;100732.38;;;10.64;100.00
47054;BME280;32811;52.382;5.270;2023-11-19T03:05:00;100725.50;;;10.58;100.00
47054;BME280;32811;52.382;5.270;2023-11-19T03:07:27;100734.13;;;10.73;100.00
47054;BME280;32811;52.382;5.270;2023-11-19T03:09:56;100740.13;;;10.59;100.00
47054;BME280;32811;52.382;5.270;2023-11-19T03:12:22;100741.88;;;10.65;100.00
47054;BME280;32811;52.382;5.270;2023-11-19T03:14:49;100747.84;;;10.59;100.00
47054;BME280;32811;52.382;5.270;2023-11-19T03:17:17;100735.81;;;10.52;100.00
47054;BME280;32811;52.382;5.270;2023-11-19T03:19:43;100740.97;;;10.55;100.00
47054;BME280;32811;52.382;5.270;2023-11-19T03:22:10;100730.63;;;10.46;100.00
47054;BME280;32811;52.382;5.270;2023-11-19T03:24:39;100730.66;;;10.54;100.00
47054;BME280;32811;52.382;5.270;2023-11-19T03:27:06;100732.28;;;10.38;100.00
47054;BME280;32811;52.382;5.270;2023-11-19T03:29:32;100734.03;;;10.39;100.00
47054;BME280;32811;52.382;5.270;2023-11-19T03:31:59;100746.09;;;10.38;100.00
47054;BME280;32811;52.382;5.270;2023-11-19T03:34:26;100726.28;;;10.33;100.00
47054;BME280;32811;52.382;5.270;2023-11-19T03:36:52;100728.88;;;10.34;100.00
47054;BME280;32811;52.382;5.270;2023-11-19T03:39:22;100721.94;;;10.29;100.00
47054;BME280;32811;52.382;5.270;2023-11-19T03:41:51;100726.28;;;10.30;100.00
47054;BME280;32811;52.382;5.270;2023-11-19T03:44:17;100718.44;;;10.22;100.00
47054;BME280;32811;52.382;5.270;2023-11-19T03:46:45;100729.69;;;10.30;100.00
47054;BME280;32811;52.382;5.270;2023-11-19T03:49:12;100724.47;;;10.19;100.00
47054;BME280;32811;52.382;5.270;2023-11-19T03:51:39;100717.59;;;10.20;100.00
47054;BME280;32811;52.382;5.270;2023-11-19T03:54:06;100736.59;;;10.33;100.00
47054;BME280;32811;52.382;5.270;2023-11-19T03:56:33;100734.91;;;10.36;100.00
47054;BME280;32811;52.382;5.270;2023-11-19T03:58:59;100724.53;;;10.30;100.00
47054;BME280;32811;52.382;5.270;2023-11-19T04:01:26;100725.41;;;10.31;100.00
47054;BME280;32811;52.382;5.270;2023-11-19T04:03:53;100721.13;;;10.36;100.00
47054;BME280;32811;52.382;5.270;2023-11-19T04:06:19;100731.44;;;10.37;100.00
47054;BME280;32811;52.382;5.270;2023-11-19T04:08:46;100716.81;;;10.38;100.00
47054;BME280;32811;52.382;5.270;2023-11-19T04:11:13;100727.16;;;10.44;100.00
47054;BME280;32811;52.382;5.270;2023-11-19T04:13:39;100723.72;;;10.36;100.00
47054;BME280;32811;52.382;5.270;2023-11-19T04:16:06;100727.13;;;10.38;100.00
47054;BME280;32811;52.382;5.270;2023-11-19T04:18:33;100721.94;;;10.29;100.00
47054;BME280;32811;52.382;5.270;2023-11-19T04:21:00;100725.41;;;10.29;100.00
47054;BME280;32811;52.382;5.270;2023-11-19T04:23:27;100734.84;;;10.29;100.00
47054;BME280;32811;52.382;5.270;2023-11-19T04:25:53;100746.03;;;10.31;100.00
47054;BME280;32811;52.382;5.270;2023-11-19T04:28:20;100746.03;;;10.31;100.00
47054;BME280;32811;52.382;5.270;2023-11-19T04:30:47;100745.19;;;10.32;100.00
47054;BME280;32811;52.382;5.270;2023-11-19T04:33:13;100734.00;;;10.30;100.00
47054;BME280;32811;52.382;5.270;2023-11-19T04:35:41;100731.38;;;10.21;100.00
47054;BME280;32811;52.382;5.270;2023-11-19T04:38:08;100744.25;;;10.27;100.00
47054;BME280;32811;52.382;5.270;2023-11-19T04:40:35;100749.41;;;10.19;100.00
47054;BME280;32811;52.382;5.270;2023-11-19T04:43:01;100741.63;;;10.10;100.00
47054;BME280;32811;52.382;5.270;2023-11-19T04:45:28;100740.78;;;10.12;100.00
47054;BME280;32811;52.382;5.270;2023-11-19T04:47:55;100752.81;;;10.15;100.00
47054;BME280;32811;52.382;5.270;2023-11-19T04:50:22;100741.59;;;10.08;100.00
47054;BME280;32811;52.382;5.270;2023-11-19T04:52:48;100735.63;;;10.09;100.00
47054;BME280;32811;52.382;5.270;2023-11-19T04:55:15;100741.66;;;10.14;100.00
47054;BME280;32811;52.382;5.270;2023-11-19T04:57:41;100733.06;;;10.17;100.00
47054;BME280;32811;52.382;5.270;2023-11-19T05:00:10;100728.75;;;10.17;100.00
47054;BME280;32811;52.382;5.270;2023-11-19T05:02:40;100727.88;;;10.15;100.00
47054;BME280;32811;52.382;5.270;2023-11-19T05:05:07;100728.75;;;10.17;100.00
47054;BME280;32811;52.382;5.270;2023-11-19T05:07:35;100734.78;;;10.19;100.00
47054;BME280;32811;52.382;5.270;2023-11-19T05:10:02;100731.34;;;10.16;100.00
47054;BME280;32811;52.382;5.270;2023-11-19T05:12:30;100742.53;;;10.16;100.00
47054;BME280;32811;52.382;5.270;2023-11-19T05:14:58;100724.47;;;10.16;100.00
47054;BME280;32811;52.382;5.270;2023-11-19T05:17:24;100738.22;;;10.25;100.00
47054;BME280;32811;52.382;5.270;2023-11-19T05:19:54;100711.53;;;10.13;100.00
47054;BME280;32811;52.382;5.270;2023-11-19T05:22:20;100715.84;;;10.17;100.00
47054;BME280;32811;52.382;5.270;2023-11-19T05:24:48;100737.38;;;10.21;100.00
47054;BME280;32811;52.382;5.270;2023-11-19T05:27:16;100725.34;;;10.18;100.00
47054;BME280;32811;52.382;5.270;2023-11-19T05:29:42;100739.97;;;10.23;100.00
47054;BME280;32811;52.382;5.270;2023-11-19T05:32:10;100740.81;;;10.22;100.00
47054;BME280;32811;52.382;5.270;2023-11-19T05:34:36;100739.13;;;10.25;100.00
47054;BME280;32811;52.382;5.270;2023-11-19T05:37:03;100734.81;;;10.21;100.00
47054;BME280;32811;52.382;5.270;2023-11-19T05:39:32;100739.94;;;10.19;100.00
47054;BME280;32811;52.382;5.270;2023-11-19T05:41:58;100744.25;;;10.22;100.00
47054;BME280;32811;52.382;5.270;2023-11-19T05:44:25;100716.69;;;10.07;100.00
47054;BME280;32811;52.382;5.270;2023-11-19T05:46:52;100742.56;;;10.23;100.00
47054;BME280;32811;52.382;5.270;2023-11-19T05:49:18;100741.69;;;10.21;100.00
47054;BME280;32811;52.382;5.270;2023-11-19T05:51:45;100733.94;;;10.21;100.00
47054;BME280;32811;52.382;5.270;2023-11-19T05:54:12;100725.31;;;10.14;100.00
47054;BME280;32811;52.382;5.270;2023-11-19T05:56:40;100717.50;;;10.02;100.00
47054;BME280;32811;52.382;5.270;2023-11-19T05:59:08;100712.34;;;9.98;100.00
47054;BME280;32811;52.382;5.270;2023-11-19T06:01:42;100727.88;;;10.08;100.00
47054;BME280;32811;52.382;5.270;2023-11-19T06:04:08;100741.59;;;10.08;100.00
47054;BME280;32811;52.382;5.270;2023-11-19T06:06:36;100738.16;;;10.03;100.00
47054;BME280;32811;52.382;5.270;2023-11-19T06:09:03;100735.59;;;10.08;100.00
47054;BME280;32811;52.382;5.270;2023-11-19T06:11:33;100735.59;;;10.06;100.00
47054;BME280;32811;52.382;5.270;2023-11-19T06:14:02;100740.78;;;10.14;100.00
47054;BME280;32811;52.382;5.270;2023-11-19T06:16:31;100740.78;;;10.14;100.00
47054;BME280;32811;52.382;5.270;2023-11-19T06:18:58;100741.66;;;10.19;100.00
47054;BME280;32811;52.382;5.270;2023-11-19T06:21:25;100737.41;;;10.23;100.00
47054;BME280;32811;52.382;5.270;2023-11-19T06:23:52;100738.19;;;10.15;100.00
47054;BME280;32811;52.382;5.270;2023-11-19T06:26:20;100707.19;;;10.00;100.00
47054;BME280;32811;52.382;5.270;2023-11-19T06:28:48;100741.56;;;10.02;100.00
47054;BME280;32811;52.382;5.270;2023-11-19T06:31:15;100734.72;;;10.03;100.00
47054;BME280;32811;52.382;5.270;2023-11-19T06:33:42;100732.09;;;10.00;100.00
47054;BME280;32811;52.382;5.270;2023-11-19T06:36:09;100741.56;;;9.99;100.00
47054;BME280;32811;52.382;5.270;2023-11-19T06:38:36;100700.25;;;9.85;100.00
47054;BME280;32811;52.382;5.270;2023-11-19T06:41:07;100724.34;;;9.95;100.00
47054;BME280;32811;52.382;5.270;2023-11-19T06:43:33;100735.53;;;9.97;100.00
47054;BME280;32811;52.382;5.270;2023-11-19T06:46:03;100742.44;;;10.01;100.00
47054;BME280;32811;52.382;5.270;2023-11-19T06:48:32;100742.44;;;9.98;100.00
47054;BME280;32811;52.382;5.270;2023-11-19T06:51:00;100738.09;;;9.95;100.00
47054;BME280;32811;52.382;5.270;2023-11-19T06:53:26;100738.94;;;9.93;100.00
47054;BME280;32811;52.382;5.270;2023-11-19T06:55:54;100736.34;;;9.85;100.00
47054;BME280;32811;52.382;5.270;2023-11-19T06:58:21;100738.09;;;9.92;100.00
47054;BME280;32811;52.382;5.270;2023-11-19T07:00:48;100751.06;;;10.03;100.00
47054;BME280;32811;52.382;5.270;2023-11-19T07:03:16;100756.16;;;10.00;100.00
47054;BME280;32811;52.382;5.270;2023-11-19T07:05:47;100757.03;;;9.97;100.00
47054;BME280;32811;52.382;5.270;2023-11-19T07:08:15;100753.63;;;10.02;100.00
47054;BME280;32811;52.382;5.270;2023-11-19T07:10:42;100750.16;;;10.00;100.00
47054;BME280;32811;52.382;5.270;2023-11-19T07:13:08;100767.41;;;10.13;100.00
47054;BME280;32811;52.382;5.270;2023-11-19T07:15:36;100763.13;;;10.13;100.00
47054;BME280;32811;52.382;5.270;2023-11-19T07:18:02;100758.81;;;10.08;100.00
47054;BME280;32811;52.382;5.270;2023-11-19T07:20:30;100749.31;;;10.01;100.00
47054;BME280;32811;52.382;5.270;2023-11-19T07:22:57;100764.00;;;10.15;100.00
47054;BME280;32811;52.382;5.270;2023-11-19T07:25:24;100744.13;;;9.97;100.00
47054;BME280;32811;52.382;5.270;2023-11-19T07:27:51;100756.19;;;10.02;100.00
47054;BME280;32811;52.382;5.270;2023-11-19T07:30:19;100764.84;;;10.10;100.00
47054;BME280;32811;52.382;5.270;2023-11-19T07:32:45;100774.31;;;10.15;100.00
47054;BME280;32811;52.382;5.270;2023-11-19T07:35:12;100769.13;;;10.11;100.00
47054;BME280;32811;52.382;5.270;2023-11-19T07:37:39;100769.16;;;10.14;100.00
47054;BME280;32811;52.382;5.270;2023-11-19T07:40:06;100771.75;;;10.18;100.00
47054;BME280;32811;52.382;5.270;2023-11-19T07:42:33;100756.28;;;10.18;100.00
47054;BME280;32811;52.382;5.270;2023-11-19T07:44:59;100767.47;;;10.19;100.00
47054;BME280;32811;52.382;5.270;2023-11-19T07:47:26;100783.81;;;10.23;100.00
47054;BME280;32811;52.382;5.270;2023-11-19T07:49:55;100771.72;;;10.09;100.00
47054;BME280;32811;52.382;5.270;2023-11-19T07:52:22;100788.94;;;10.15;100.00
47054;BME280;32811;52.382;5.270;2023-11-19T07:54:48;100779.47;;;10.20;100.00
47054;BME280;32811;52.382;5.270;2023-11-19T07:57:15;100782.09;;;10.25;100.00
47054;BME280;32811;52.382;5.270;2023-11-19T07:59:42;100776.94;;;10.26;100.00
47054;BME280;32811;52.382;5.270;2023-11-19T08:02:08;100760.56;;;10.19;100.00
47054;BME280;32811;52.382;5.270;2023-11-19T08:04:36;100761.44;;;10.18;100.00
47054;BME280;32811;52.382;5.270;2023-11-19T08:07:03;100761.41;;;10.15;100.00
47054;BME280;32811;52.382;5.270;2023-11-19T08:09:29;100759.69;;;10.17;100.00
47054;BME280;32811;52.382;5.270;2023-11-19T08:11:57;100768.34;;;10.21;100.00
47054;BME280;32811;52.382;5.270;2023-11-19T08:14:23;100769.28;;;10.29;100.00
47054;BME280;32811;52.382;5.270;2023-11-19T08:16:50;100761.47;;;10.26;100.00
47054;BME280;32811;52.382;5.270;2023-11-19T08:19:18;100772.66;;;10.28;100.00
47054;BME280;32811;52.382;5.270;2023-11-19T08:21:49;100763.19;;;10.26;100.00
47054;BME280;32811;52.382;5.270;2023-11-19T08:24:17;100770.91;;;10.24;100.00
47054;BME280;32811;52.382;5.270;2023-11-19T08:26:44;100764.03;;;10.26;100.00
47054;BME280;32811;52.382;5.270;2023-11-19T08:29:12;100770.91;;;10.24;100.00
47054;BME280;32811;52.382;5.270;2023-11-19T08:31:42;100774.34;;;10.22;100.00
47054;BME280;32811;52.382;5.270;2023-11-19T08:34:11;100777.00;;;10.31;100.00
47054;BME280;32811;52.382;5.270;2023-11-19T08:36:37;100769.28;;;10.34;100.00
47054;BME280;32811;52.382;5.270;2023-11-19T08:39:04;100781.34;;;10.39;100.00
47054;BME280;32811;52.382;5.270;2023-11-19T08:41:31;100775.31;;;10.39;100.00
47054;BME280;32811;52.382;5.270;2023-11-19T08:43:58;100775.31;;;10.42;100.00
47054;BME280;32811;52.382;5.270;2023-11-19T08:46:25;100776.19;;;10.44;100.00
47054;BME280;32811;52.382;5.270;2023-11-19T08:48:52;100787.38;;;10.46;100.00
47054;BME280;32811;52.382;5.270;2023-11-19T08:51:25;100793.41;;;10.44;100.00
47054;BME280;32811;52.382;5.270;2023-11-19T08:53:51;100796.03;;;10.54;100.00
47054;BME280;32811;52.382;5.270;2023-11-19T08:56:18;100797.78;;;10.58;100.00
47054;BME280;32811;52.382;5.270;2023-11-19T08:58:45;100780.53;;;10.53;100.00
47054;BME280;32811;52.382;5.270;2023-11-19T09:01:12;100786.56;;;10.56;100.00
47054;BME280;32811;52.382;5.270;2023-11-19T09:03:39;100773.63;;;10.41;100.00
47054;BME280;32811;52.382;5.270;2023-11-19T09:06:07;100783.09;;;10.56;100.00
47054;BME280;32811;52.382;5.270;2023-11-19T09:08:33;100795.22;;;10.75;100.00
47054;BME280;32811;52.382;5.270;2023-11-19T09:11:06;100788.31;;;10.71;100.00
47054;BME280;32811;52.382;5.270;2023-11-19T09:13:36;100795.19;;;10.69;100.00
47054;BME280;32811;52.382;5.270;2023-11-19T09:16:03;100781.44;;;10.67;100.00
47054;BME280;32811;52.382;5.270;2023-11-19T09:18:30;100771.97;;;10.63;100.00
47054;BME280;32811;52.382;5.270;2023-11-19T09:20:58;100742.63;;;10.39;100.00
47054;BME280;32811;52.382;5.270;2023-11-19T09:23:25;100786.59;;;10.64;100.00
47054;BME280;32811;52.382;5.270;2023-11-19T09:25:54;100784.00;;;10.63;100.00
47054;BME280;32811;52.382;5.270;2023-11-19T09:28:21;100781.44;;;10.69;100.00
47054;BME280;32811;52.382;5.270;2023-11-19T09:30:48;100790.94;;;10.82;100.00
47054;BME280;32811;52.382;5.270;2023-11-19T09:33:14;100787.53;;;10.92;100.00
47054;BME280;32811;52.382;5.270;2023-11-19T09:35:41;100778.06;;;11.02;100.00
47054;BME280;32811;52.382;5.270;2023-11-19T09:38:08;100783.25;;;11.10;100.00
47054;BME280;32811;52.382;5.270;2023-11-19T09:40:37;100769.47;;;11.11;100.00
47054;BME280;32811;52.382;5.270;2023-11-19T09:43:06;100774.66;;;11.25;100.00
47054;BME280;32811;52.382;5.270;2023-11-19T09:45:49;100776.38;;;11.21;100.00
47054;BME280;32811;52.382;5.270;2023-11-19T09:48:19;100788.44;;;11.22;100.00
47054;BME280;32811;52.382;5.270;2023-11-19T09:50:47;100781.53;;;11.24;100.00
47054;BME280;32811;52.382;5.270;2023-11-19T09:53:15;100777.22;;;11.25;100.00
47054;BME280;32811;52.382;5.270;2023-11-19T09:55:42;100777.22;;;11.18;100.00
47054;BME280;32811;52.382;5.270;2023-11-19T09:58:14;100769.47;;;11.18;100.00
47054;BME280;32811;52.382;5.270;2023-11-19T10:00:42;100778.09;;;11.17;100.00
47054;BME280;32811;52.382;5.270;2023-11-19T10:03:09;100778.97;;;11.15;100.00
47054;BME280;32811;52.382;5.270;2023-11-19T10:05:37;100762.59;;;11.14;100.00
47054;BME280;32811;52.382;5.270;2023-11-19T10:08:08;100776.38;;;11.22;100.00
47054;BME280;32811;52.382;5.270;2023-11-19T10:10:37;100768.63;;;11.21;100.00
47054;BME280;32811;52.382;5.270;2023-11-19T10:13:04;100743.66;;;11.15;100.00
47054;BME280;32811;52.382;5.270;2023-11-19T10:15:36;100755.72;;;11.16;100.00
47054;BME280;32811;52.382;5.270;2023-11-19T10:18:03;100758.28;;;11.12;100.00
47054;BME280;32811;52.382;5.270;2023-11-19T10:20:40;100757.44;;;11.14;100.00
47054;BME280;32811;52.382;5.270;2023-11-19T10:23:07;100774.66;;;11.11;100.00
47054;BME280;32811;52.382;5.270;2023-11-19T10:25:35;100765.16;;;11.20;100.00
47054;BME280;32811;52.382;5.270;2023-11-19T10:28:01;100754.84;;;11.28;100.00
47054;BME280;32811;52.382;5.270;2023-11-19T10:30:30;100760.88;;;11.42;100.00
47054;BME280;32811;52.382;5.270;2023-11-19T10:35:51;100759.16;;;11.48;100.00
47054;BME280;32811;52.382;5.270;2023-11-19T10:38:25;100763.47;;;11.46;100.00
47054;BME280;32811;52.382;5.270;2023-11-19T10:40:53;100757.44;;;11.53;100.00
47054;BME280;32811;52.382;5.270;2023-11-19T10:43:21;100757.41;;;11.57;100.00
47054;BME280;32811;52.382;5.270;2023-11-19T10:45:52;100756.56;;;11.57;100.00
47054;BME280;32811;52.382;5.270;2023-11-19T10:48:19;100752.25;;;11.51;100.00
47054;BME280;32811;52.382;5.270;2023-11-19T10:50:53;100758.28;;;11.61;100.00
47054;BME280;32811;52.382;5.270;2023-11-19T10:53:24;100760.00;;;11.47;100.00
47054;BME280;32811;52.382;5.270;2023-11-19T10:55:56;100749.69;;;11.39;100.00
47054;BME280;32811;52.382;5.270;2023-11-19T10:58:27;100758.28;;;11.64;100.00
47054;BME280;32811;52.382;5.270;2023-11-19T11:00:57;100747.94;;;11.69;100.00
47054;BME280;32811;52.382;5.270;2023-11-19T11:03:35;100761.69;;;11.86;100.00
47054;BME280;32811;52.382;5.270;2023-11-19T11:06:04;100746.16;;;12.01;100.00
47054;BME280;32811;52.382;5.270;2023-11-19T11:08:31;100740.09;;;12.01;100.00
47054;BME280;32811;52.382;5.270;2023-11-19T11:10:58;100747.00;;;12.00;100.00
47054;BME280;32811;52.382;5.270;2023-11-19T11:13:26;100715.16;;;11.81;100.00
47054;BME280;32811;52.382;5.270;2023-11-19T11:15:56;100743.59;;;11.91;100.00
47054;BME280;32811;52.382;5.270;2023-11-19T11:18:27;100708.31;;;11.63;100.00
47054;BME280;32811;52.382;5.270;2023-11-19T11:29:35;100716.00;;;11.74;100.00
47054;BME280;32811;52.382;5.270;2023-11-19T11:32:37;100681.56;;;11.58;100.00
47054;BME280;32811;52.382;5.270;2023-11-19T11:38:04;100695.31;;;11.96;100.00
47054;BME280;32811;52.382;5.270;2023-11-19T11:40:33;100709.09;;;11.96;100.00
47054;BME280;32811;52.382;5.270;2023-11-19T11:43:00;100731.50;;;12.02;100.00
47054;BME280;32811;52.382;5.270;2023-11-19T11:45:40;100717.69;;;12.03;100.00
47054;BME280;32811;52.382;5.270;2023-11-19T11:50:51;100714.16;;;12.22;100.00
47054;BME280;32811;52.382;5.270;2023-11-19T11:53:20;100718.47;;;12.27;100.00
47054;BME280;32811;52.382;5.270;2023-11-19T11:58:20;100717.72;;;12.01;100.00
47054;BME280;32811;52.382;5.270;2023-11-19T12:00:48;100723.75;;;11.85;100.00
47054;BME280;32811;52.382;5.270;2023-11-19T12:03:15;100716.00;;;11.87;100.00
47054;BME280;32811;52.382;5.270;2023-11-19T12:05:48;100718.59;;;11.99;100.00
47054;BME280;32811;52.382;5.270;2023-11-19T12:08:18;100713.38;;;12.02;100.00
47054;BME280;32811;52.382;5.270;2023-11-19T12:10:52;100719.41;;;12.05;100.00
47054;BME280;32811;52.382;5.270;2023-11-19T12:13:20;100681.53;;;11.91;100.00
47054;BME280;32811;52.382;5.270;2023-11-19T12:18:25;100709.09;;;11.96;100.00
47054;BME280;32811;52.382;5.270;2023-11-19T12:20:53;100713.38;;;12.07;100.00
47054;BME280;32811;52.382;5.270;2023-11-19T12:23:20;100715.97;;;12.08;100.00
47054;BME280;32811;52.382;5.270;2023-11-19T12:25:47;100720.28;;;12.03;100.00
47054;BME280;32811;52.382;5.270;2023-11-19T12:28:16;100707.38;;;11.95;100.00
47054;BME280;32811;52.382;5.270;2023-11-19T12:30:44;100710.81;;;11.96;100.00
47054;BME280;32811;52.382;5.270;2023-11-19T12:33:12;100680.66;;;11.76;100.00
47054;BME280;32811;52.382;5.270;2023-11-19T12:35:40;100703.97;;;11.90;100.00
47054;BME280;32811;52.382;5.270;2023-11-19T12:38:07;100701.34;;;11.86;100.00
47054;BME280;32811;52.382;5.270;2023-11-19T12:40:33;100715.13;;;12.01;100.00
47054;BME280;32811;52.382;5.270;2023-11-19T12:43:00;100705.66;;;11.90;100.00
47054;BME280;32811;52.382;5.270;2023-11-19T12:45:36;100713.41;;;11.91;100.00
47054;BME280;32811;52.382;5.270;2023-11-19T12:48:07;100710.84;;;11.73;100.00
47054;BME280;32811;52.382;5.270;2023-11-19T12:53:16;100707.41;;;11.81;100.00
47054;BME280;32811;52.382;5.270;2023-11-19T12:55:43;100710.00;;;11.77;100.00
47054;BME280;32811;52.382;5.270;2023-11-19T12:58:10;100716.03;;;11.73;100.00
47054;BME280;32811;52.382;5.270;2023-11-19T13:00:37;100698.78;;;11.67;100.00
47054;BME280;32811;52.382;5.270;2023-11-19T13:03:04;100706.53;;;11.76;100.00
47054;BME280;32811;52.382;5.270;2023-11-19T13:05:33;100716.91;;;11.70;100.00
47054;BME280;32811;52.382;5.270;2023-11-19T13:10:32;100709.16;;;11.64;100.00
47054;BME280;32811;52.382;5.270;2023-11-19T13:13:08;100711.75;;;11.61;100.00
47054;BME280;32811;52.382;5.270;2023-11-19T13:15:35;100702.28;;;11.61;100.00